createdAt,value
2018-05-03T00:00:51.165Z,1005.55
2018-05-03T00:01:51.137Z,1005.54
2018-05-03T00:02:51.134Z,1005.53
2018-05-03T00:03:51.103Z,1005.56
2018-05-03T00:04:51.091Z,1005.57
2018-05-03T00:05:51.075Z,1005.58
2018-05-03T00:06:51.054Z,1005.63
2018-05-03T00:07:51.040Z,1005.57
2018-05-03T00:08:51.021Z,1005.56
2018-05-03T00:09:50.998Z,1005.59
2018-05-03T00:10:50.979Z,1005.58
2018-05-03T00:11:50.963Z,1005.58
2018-05-03T00:12:50.953Z,1005.57
2018-05-03T00:13:50.927Z,1005.59
2018-05-03T00:14:50.912Z,1005.61
2018-05-03T00:15:50.893Z,1005.62
2018-05-03T00:16:50.878Z,1005.64
2018-05-03T00:17:50.862Z,1005.65
2018-05-03T00:18:50.845Z,1005.65
2018-05-03T00:19:50.829Z,1005.61
2018-05-03T00:20:50.807Z,1005.62
2018-05-03T00:21:50.791Z,1005.61
2018-05-03T00:22:50.775Z,1005.59
2018-05-03T00:23:50.759Z,1005.60
2018-05-03T00:24:50.739Z,1005.59
2018-05-03T00:25:50.728Z,1005.57
2018-05-03T00:26:50.705Z,1005.58
2018-05-03T00:27:50.684Z,1005.57
2018-05-03T00:28:50.668Z,1005.58
2018-05-03T00:29:50.659Z,1005.59
2018-05-03T00:30:50.632Z,1005.59
2018-05-03T00:31:50.617Z,1005.60
2018-05-03T00:32:50.598Z,1005.62
2018-05-03T00:33:50.585Z,1005.59
2018-05-03T00:34:50.569Z,1005.63
2018-05-03T00:35:50.546Z,1005.68
2018-05-03T00:36:50.530Z,1005.62
2018-05-03T00:37:50.519Z,1005.57
2018-05-03T00:38:50.493Z,1005.64
2018-05-03T00:39:50.474Z,1005.68
2018-05-03T00:40:50.463Z,1005.68
2018-05-03T00:41:50.447Z,1005.71
2018-05-03T00:42:50.425Z,1005.70
2018-05-03T00:43:50.408Z,1005.68
2018-05-03T00:44:50.387Z,1005.68
2018-05-03T00:45:50.376Z,1005.67
2018-05-03T00:46:50.362Z,1005.68
2018-05-03T00:47:50.342Z,1005.67
2018-05-03T00:48:50.328Z,1005.67
2018-05-03T00:49:50.301Z,1005.68
2018-05-03T00:50:50.284Z,1005.68
2018-05-03T00:51:50.269Z,1005.68
2018-05-03T00:52:50.253Z,1005.72
2018-05-03T00:53:50.231Z,1005.76
2018-05-03T00:54:50.214Z,1005.76
2018-05-03T00:55:50.198Z,1005.77
2018-05-03T00:56:50.179Z,1005.80
2018-05-03T00:57:50.165Z,1005.75
2018-05-03T00:58:50.145Z,1005.77
2018-05-03T00:59:50.131Z,1005.78
2018-05-03T01:00:50.119Z,1005.81
2018-05-03T01:01:50.093Z,1005.81
2018-05-03T01:02:50.073Z,1005.85
2018-05-03T01:03:50.055Z,1005.86
2018-05-03T01:04:50.041Z,1005.87
2018-05-03T01:05:50.022Z,1005.82
2018-05-03T01:06:50.002Z,1005.85
2018-05-03T01:07:49.986Z,1005.80
2018-05-03T01:08:49.968Z,1005.84
2018-05-03T01:09:49.955Z,1005.86
2018-05-03T01:10:49.929Z,1005.89
2018-05-03T01:11:49.915Z,1005.91
2018-05-03T01:12:49.898Z,1005.95
2018-05-03T01:13:49.879Z,1005.91
2018-05-03T01:14:49.862Z,1005.93
2018-05-03T01:15:49.845Z,1005.93
2018-05-03T01:16:49.897Z,1005.95
2018-05-03T01:17:49.810Z,1005.96
2018-05-03T01:18:49.795Z,1005.97
2018-05-03T01:19:49.772Z,1005.98
2018-05-03T01:20:49.757Z,1005.95
2018-05-03T01:21:49.737Z,1005.96
2018-05-03T01:22:49.718Z,1005.99
2018-05-03T01:23:49.709Z,1006.09
2018-05-03T01:24:49.685Z,1006.14
2018-05-03T01:25:49.667Z,1006.15
2018-05-03T01:26:49.649Z,1006.16
2018-05-03T01:27:49.637Z,1006.13
2018-05-03T01:28:49.613Z,1006.13
2018-05-03T01:29:49.598Z,1006.15
2018-05-03T01:30:49.579Z,1006.14
2018-05-03T01:31:49.571Z,1006.20
2018-05-03T01:32:49.545Z,1006.19
2018-05-03T01:33:49.527Z,1006.18
2018-05-03T01:34:49.508Z,1006.20
2018-05-03T01:35:49.489Z,1006.19
2018-05-03T01:36:49.471Z,1006.19
2018-05-03T01:37:49.455Z,1006.22
2018-05-03T01:38:49.455Z,1006.20
2018-05-03T01:39:49.418Z,1006.24
2018-05-03T01:40:49.401Z,1006.23
2018-05-03T01:41:49.393Z,1006.28
2018-05-03T01:42:49.367Z,1006.28
2018-05-03T01:43:49.348Z,1006.31
2018-05-03T01:44:49.338Z,1006.33
2018-05-03T01:45:49.314Z,1006.36
2018-05-03T01:46:49.300Z,1006.39
2018-05-03T01:47:49.279Z,1006.42
2018-05-03T01:48:49.266Z,1006.41
2018-05-03T01:49:49.250Z,1006.40
2018-05-03T01:50:49.222Z,1006.40
2018-05-03T01:51:49.208Z,1006.39
2018-05-03T01:52:49.193Z,1006.39
2018-05-03T01:53:49.171Z,1006.40
2018-05-03T01:54:49.162Z,1006.43
2018-05-03T01:55:49.138Z,1006.41
2018-05-03T01:56:49.115Z,1006.39
2018-05-03T01:57:49.099Z,1006.42
2018-05-03T01:58:49.084Z,1006.46
2018-05-03T01:59:49.067Z,1006.47
2018-05-03T02:00:49.049Z,1006.50
2018-05-03T02:01:49.029Z,1006.49
2018-05-03T02:02:49.014Z,1006.46
2018-05-03T02:03:48.993Z,1006.50
2018-05-03T02:04:48.979Z,1006.50
2018-05-03T02:05:48.958Z,1006.47
2018-05-03T02:06:48.941Z,1006.44
2018-05-03T02:07:48.934Z,1006.45
2018-05-03T02:08:48.908Z,1006.47
2018-05-03T02:09:48.886Z,1006.46
2018-05-03T02:10:48.878Z,1006.49
2018-05-03T02:11:48.859Z,1006.54
2018-05-03T02:12:48.842Z,1006.49
2018-05-03T02:13:48.817Z,1006.52
2018-05-03T02:14:48.799Z,1006.55
2018-05-03T02:15:48.782Z,1006.55
2018-05-03T02:16:48.765Z,1006.55
2018-05-03T02:17:48.749Z,1006.58
2018-05-03T02:18:48.728Z,1006.58
2018-05-03T02:19:48.711Z,1006.64
2018-05-03T02:20:48.697Z,1006.66
2018-05-03T02:21:48.679Z,1006.70
2018-05-03T02:22:48.658Z,1006.75
2018-05-03T02:23:48.640Z,1006.77
2018-05-03T02:24:48.626Z,1006.76
2018-05-03T02:25:48.603Z,1006.77
2018-05-03T02:26:48.593Z,1006.78
2018-05-03T02:27:48.568Z,1006.78
2018-05-03T02:28:48.553Z,1006.81
2018-05-03T02:29:48.534Z,1006.85
2018-05-03T02:30:48.515Z,1006.86
2018-05-03T02:31:48.499Z,1006.86
2018-05-03T02:32:48.479Z,1006.86
2018-05-03T02:33:48.469Z,1006.85
2018-05-03T02:34:48.447Z,1006.87
2018-05-03T02:35:48.434Z,1006.87
2018-05-03T02:36:48.423Z,1006.89
2018-05-03T02:37:48.398Z,1006.90
2018-05-03T02:38:48.374Z,1006.94
2018-05-03T02:39:48.367Z,1006.92
2018-05-03T02:40:48.344Z,1006.94
2018-05-03T02:41:48.323Z,1006.93
2018-05-03T02:42:48.303Z,1006.94
2018-05-03T02:43:48.288Z,1006.94
2018-05-03T02:44:48.269Z,1006.92
2018-05-03T02:45:48.256Z,1006.94
2018-05-03T02:46:48.233Z,1006.99
2018-05-03T02:47:48.254Z,1007.00
2018-05-03T02:48:48.199Z,1007.02
2018-05-03T02:49:48.176Z,1007.04
2018-05-03T02:50:48.160Z,1007.06
2018-05-03T02:51:48.146Z,1007.07
2018-05-03T02:52:48.128Z,1007.07
2018-05-03T02:53:48.106Z,1007.09
2018-05-03T02:54:48.091Z,1007.12
2018-05-03T02:55:48.078Z,1007.16
2018-05-03T02:56:48.056Z,1007.16
2018-05-03T02:57:48.041Z,1007.21
2018-05-03T02:58:48.017Z,1007.20
2018-05-03T02:59:48.002Z,1007.22
2018-05-03T03:00:47.981Z,1007.20
2018-05-03T03:01:47.974Z,1007.24
2018-05-03T03:02:47.950Z,1007.28
2018-05-03T03:03:47.930Z,1007.33
2018-05-03T03:04:47.908Z,1007.32
2018-05-03T03:05:47.897Z,1007.32
2018-05-03T03:06:47.877Z,1007.31
2018-05-03T03:07:47.859Z,1007.32
2018-05-03T03:08:47.838Z,1007.33
2018-05-03T03:09:47.820Z,1007.33
2018-05-03T03:10:47.800Z,1007.33
2018-05-03T03:11:47.782Z,1007.37
2018-05-03T03:12:47.768Z,1007.42
2018-05-03T03:13:47.748Z,1007.41
2018-05-03T03:14:47.729Z,1007.44
2018-05-03T03:15:47.716Z,1007.44
2018-05-03T03:16:47.696Z,1007.44
2018-05-03T03:17:47.680Z,1007.45
2018-05-03T03:18:47.659Z,1007.49
2018-05-03T03:19:47.640Z,1007.51
2018-05-03T03:20:47.624Z,1007.46
2018-05-03T03:21:47.607Z,1007.48
2018-05-03T03:22:47.594Z,1007.50
2018-05-03T03:23:47.572Z,1007.51
2018-05-03T03:24:47.554Z,1007.49
2018-05-03T03:25:47.537Z,1007.53
2018-05-03T03:26:47.514Z,1007.49
2018-05-03T03:27:47.497Z,1007.51
2018-05-03T03:28:47.480Z,1007.54
2018-05-03T03:29:47.466Z,1007.52
2018-05-03T03:30:47.442Z,1007.55
2018-05-03T03:31:47.427Z,1007.58
2018-05-03T03:32:47.409Z,1007.55
2018-05-03T03:33:47.389Z,1007.60
2018-05-03T03:34:47.372Z,1007.61
2018-05-03T03:35:47.355Z,1007.60
2018-05-03T03:36:47.338Z,1007.65
2018-05-03T03:37:47.320Z,1007.66
2018-05-03T03:38:47.299Z,1007.68
2018-05-03T03:39:47.286Z,1007.67
2018-05-03T03:40:47.270Z,1007.70
2018-05-03T03:41:47.245Z,1007.73
2018-05-03T03:42:47.230Z,1007.73
2018-05-03T03:43:47.210Z,1007.73
2018-05-03T03:44:47.197Z,1007.71
2018-05-03T03:45:47.179Z,1007.71
2018-05-03T03:46:47.158Z,1007.68
2018-05-03T03:47:47.143Z,1007.72
2018-05-03T03:48:47.127Z,1007.72
2018-05-03T03:49:47.108Z,1007.69
2018-05-03T03:50:47.087Z,1007.67
2018-05-03T03:51:47.067Z,1007.68
2018-05-03T03:52:47.056Z,1007.65
2018-05-03T03:53:47.034Z,1007.70
2018-05-03T03:54:47.016Z,1007.70
2018-05-03T03:55:46.998Z,1007.75
2018-05-03T03:56:46.984Z,1007.74
2018-05-03T03:57:46.968Z,1007.72
2018-05-03T03:58:46.944Z,1007.75
2018-05-03T03:59:46.927Z,1007.72
2018-05-03T04:00:46.918Z,1007.74
2018-05-03T04:01:46.897Z,1007.77
2018-05-03T04:02:46.883Z,1007.81
2018-05-03T04:03:46.857Z,1007.75
2018-05-03T04:04:46.841Z,1007.77
2018-05-03T04:05:46.821Z,1007.75
2018-05-03T04:06:46.803Z,1007.76
2018-05-03T04:07:46.783Z,1007.76
2018-05-03T04:08:46.771Z,1007.80
2018-05-03T04:09:46.748Z,1007.77
2018-05-03T04:10:46.733Z,1007.77
2018-05-03T04:11:46.717Z,1007.76
2018-05-03T04:12:46.699Z,1007.78
2018-05-03T04:13:46.676Z,1007.84
2018-05-03T04:14:46.658Z,1007.81
2018-05-03T04:15:46.645Z,1007.88
2018-05-03T04:16:46.629Z,1007.93
2018-05-03T04:17:46.608Z,1007.97
2018-05-03T04:18:46.597Z,1007.97
2018-05-03T04:19:46.573Z,1007.96
2018-05-03T04:20:46.565Z,1007.91
2018-05-03T04:21:46.538Z,1007.94
2018-05-03T04:22:46.519Z,1007.97
2018-05-03T04:23:46.499Z,1007.97
2018-05-03T04:24:46.488Z,1007.97
2018-05-03T04:25:46.464Z,1008.01
2018-05-03T04:26:46.448Z,1008.07
2018-05-03T04:27:46.428Z,1008.07
2018-05-03T04:28:46.408Z,1008.09
2018-05-03T04:29:46.397Z,1008.12
2018-05-03T04:30:46.374Z,1008.13
2018-05-03T04:31:46.355Z,1008.14
2018-05-03T04:32:46.337Z,1008.17
2018-05-03T04:33:46.337Z,1008.19
2018-05-03T04:34:46.306Z,1008.26
2018-05-03T04:35:46.290Z,1008.28
2018-05-03T04:36:46.268Z,1008.30
2018-05-03T04:37:46.247Z,1008.35
2018-05-03T04:38:46.233Z,1008.35
2018-05-03T04:39:46.218Z,1008.37
2018-05-03T04:40:46.198Z,1008.35
2018-05-03T04:41:46.175Z,1008.38
2018-05-03T04:42:46.161Z,1008.38
2018-05-03T04:43:46.143Z,1008.37
2018-05-03T04:44:46.127Z,1008.37
2018-05-03T04:45:46.107Z,1008.41
2018-05-03T04:46:46.101Z,1008.42
2018-05-03T04:47:46.070Z,1008.43
2018-05-03T04:48:46.049Z,1008.45
2018-05-03T04:49:46.037Z,1008.46
2018-05-03T04:50:46.013Z,1008.53
2018-05-03T04:51:46.006Z,1008.54
2018-05-03T04:52:45.979Z,1008.52
2018-05-03T04:53:45.960Z,1008.54
2018-05-03T04:54:45.943Z,1008.52
2018-05-03T04:55:45.928Z,1008.56
2018-05-03T04:56:45.909Z,1008.55
2018-05-03T04:57:45.895Z,1008.57
2018-05-03T04:58:45.869Z,1008.54
2018-05-03T04:59:45.853Z,1008.59
2018-05-03T05:00:45.850Z,1008.67
2018-05-03T05:01:45.819Z,1008.67
2018-05-03T05:02:45.815Z,1008.71
2018-05-03T05:03:45.791Z,1008.71
2018-05-03T05:04:45.840Z,1008.77
2018-05-03T05:05:45.752Z,1008.76
2018-05-03T05:06:45.731Z,1008.81
2018-05-03T05:07:45.715Z,1008.83
2018-05-03T05:08:45.696Z,1008.86
2018-05-03T05:09:45.669Z,1008.84
2018-05-03T05:10:45.650Z,1008.84
2018-05-03T05:11:45.635Z,1008.88
2018-05-03T05:12:45.629Z,1008.90
2018-05-03T05:13:45.600Z,1008.96
2018-05-03T05:14:45.578Z,1009.01
2018-05-03T05:15:45.557Z,1009.05
2018-05-03T05:16:45.545Z,1009.06
2018-05-03T05:17:45.523Z,1009.01
2018-05-03T05:18:45.510Z,1009.03
2018-05-03T05:19:45.496Z,1009.02
2018-05-03T05:20:45.471Z,1009.04
2018-05-03T05:21:45.450Z,1009.04
2018-05-03T05:22:45.430Z,1009.02
2018-05-03T05:23:45.413Z,1009.03
2018-05-03T05:24:45.399Z,1009.04
2018-05-03T05:25:45.378Z,1009.04
2018-05-03T05:26:45.361Z,1009.07
2018-05-03T05:27:45.339Z,1009.06
2018-05-03T05:28:45.320Z,1009.14
2018-05-03T05:29:45.305Z,1009.18
2018-05-03T05:30:45.315Z,1009.22
2018-05-03T05:31:45.269Z,1009.27
2018-05-03T05:32:45.247Z,1009.25
2018-05-03T05:33:45.230Z,1009.30
2018-05-03T05:34:45.213Z,1009.32
2018-05-03T05:35:45.191Z,1009.32
2018-05-03T05:36:45.179Z,1009.29
2018-05-03T05:37:45.159Z,1009.31
2018-05-03T05:38:45.171Z,1009.37
2018-05-03T05:39:45.122Z,1009.29
2018-05-03T05:40:45.103Z,1009.32
2018-05-03T05:41:45.084Z,1009.37
2018-05-03T05:42:45.065Z,1009.35
2018-05-03T05:43:45.050Z,1009.40
2018-05-03T05:44:45.032Z,1009.42
2018-05-03T05:45:45.010Z,1009.42
2018-05-03T05:46:44.990Z,1009.44
2018-05-03T05:47:44.980Z,1009.51
2018-05-03T05:48:44.953Z,1009.53
2018-05-03T05:49:44.933Z,1009.57
2018-05-03T05:50:44.917Z,1009.61
2018-05-03T05:51:44.899Z,1009.65
2018-05-03T05:52:44.880Z,1009.64
2018-05-03T05:53:44.859Z,1009.69
2018-05-03T05:54:44.845Z,1009.69
2018-05-03T05:55:44.831Z,1009.70
2018-05-03T05:56:44.826Z,1009.70
2018-05-03T05:57:44.788Z,1009.72
2018-05-03T05:58:44.772Z,1009.72
2018-05-03T05:59:44.751Z,1009.81
2018-05-03T06:00:44.737Z,1009.79
2018-05-03T06:01:44.717Z,1009.79
2018-05-03T06:02:44.694Z,1009.77
2018-05-03T06:03:44.678Z,1009.80
2018-05-03T06:04:44.659Z,1009.85
2018-05-03T06:05:44.640Z,1009.83
2018-05-03T06:06:44.624Z,1009.88
2018-05-03T06:07:44.607Z,1009.87
2018-05-03T06:08:44.585Z,1009.89
2018-05-03T06:09:44.569Z,1009.87
2018-05-03T06:10:44.550Z,1009.88
2018-05-03T06:11:44.529Z,1009.94
2018-05-03T06:12:44.515Z,1009.95
2018-05-03T06:13:44.497Z,1009.92
2018-05-03T06:14:44.477Z,1009.90
2018-05-03T06:15:44.458Z,1009.91
2018-05-03T06:16:44.440Z,1009.96
2018-05-03T06:17:44.420Z,1010.00
2018-05-03T06:18:44.401Z,1009.96
2018-05-03T06:19:44.386Z,1010.02
2018-05-03T06:20:44.368Z,1010.05
2018-05-03T06:21:44.348Z,1010.06
2018-05-03T06:22:44.334Z,1010.11
2018-05-03T06:23:44.320Z,1010.10
2018-05-03T06:24:44.292Z,1010.11
2018-05-03T06:25:44.277Z,1010.08
2018-05-03T06:26:44.259Z,1010.07
2018-05-03T06:27:44.235Z,1010.07
2018-05-03T06:28:44.220Z,1010.10
2018-05-03T06:29:44.205Z,1010.10
2018-05-03T06:30:44.181Z,1010.12
2018-05-03T06:31:44.160Z,1010.16
2018-05-03T06:32:44.147Z,1010.16
2018-05-03T06:33:44.130Z,1010.20
2018-05-03T06:34:44.109Z,1010.23
2018-05-03T06:35:44.092Z,1010.23
2018-05-03T06:36:44.069Z,1010.29
2018-05-03T06:37:44.054Z,1010.27
2018-05-03T06:38:44.035Z,1010.28
2018-05-03T06:39:44.015Z,1010.30
2018-05-03T06:40:43.999Z,1010.27
2018-05-03T06:41:43.982Z,1010.31
2018-05-03T06:42:43.958Z,1010.38
2018-05-03T06:43:43.943Z,1010.39
2018-05-03T06:44:43.936Z,1010.34
2018-05-03T06:45:43.904Z,1010.38
2018-05-03T06:46:43.888Z,1010.37
2018-05-03T06:47:43.878Z,1010.38
2018-05-03T06:48:43.848Z,1010.40
2018-05-03T06:49:43.837Z,1010.41
2018-05-03T06:50:43.813Z,1010.37
2018-05-03T06:51:43.793Z,1010.44
2018-05-03T06:52:43.776Z,1010.45
2018-05-03T06:53:43.763Z,1010.42
2018-05-03T06:54:43.739Z,1010.42
2018-05-03T06:55:43.727Z,1010.48
2018-05-03T06:56:43.705Z,1010.46
2018-05-03T06:57:43.686Z,1010.41
2018-05-03T06:58:43.668Z,1010.43
2018-05-03T06:59:43.653Z,1010.48
2018-05-03T07:00:43.630Z,1010.52
2018-05-03T07:01:43.612Z,1010.55
2018-05-03T07:02:43.596Z,1010.51
2018-05-03T07:03:43.594Z,1010.50
2018-05-03T07:04:43.558Z,1010.47
2018-05-03T07:05:43.545Z,1010.51
2018-05-03T07:06:43.520Z,1010.51
2018-05-03T07:07:43.504Z,1010.52
2018-05-03T07:08:43.484Z,1010.58
2018-05-03T07:09:43.469Z,1010.54
2018-05-03T07:10:43.459Z,1010.59
2018-05-03T07:11:43.428Z,1010.54
2018-05-03T07:12:43.410Z,1010.60
2018-05-03T07:13:43.391Z,1010.57
2018-05-03T07:14:43.375Z,1010.57
2018-05-03T07:15:43.358Z,1010.59
2018-05-03T07:16:43.339Z,1010.60
2018-05-03T07:17:43.326Z,1010.61
2018-05-03T07:18:43.299Z,1010.57
2018-05-03T07:19:43.292Z,1010.59
2018-05-03T07:20:43.268Z,1010.64
2018-05-03T07:21:43.249Z,1010.70
2018-05-03T07:22:43.226Z,1010.64
2018-05-03T07:23:43.231Z,1010.70
2018-05-03T07:24:43.199Z,1010.74
2018-05-03T07:25:43.181Z,1010.76
2018-05-03T07:26:43.160Z,1010.73
2018-05-03T07:27:43.137Z,1010.79
2018-05-03T07:28:43.120Z,1010.74
2018-05-03T07:29:43.107Z,1010.79
2018-05-03T07:30:43.085Z,1010.83
2018-05-03T07:31:43.065Z,1010.79
2018-05-03T07:32:43.053Z,1010.79
2018-05-03T07:33:43.032Z,1010.81
2018-05-03T07:34:43.089Z,1010.78
2018-05-03T07:35:42.994Z,1010.78
2018-05-03T07:36:42.979Z,1010.78
2018-05-03T07:37:42.959Z,1010.83
2018-05-03T07:38:42.937Z,1010.87
2018-05-03T07:39:42.924Z,1010.91
2018-05-03T07:40:42.918Z,1010.89
2018-05-03T07:41:42.889Z,1010.93
2018-05-03T07:42:42.869Z,1010.97
2018-05-03T07:43:42.853Z,1010.96
2018-05-03T07:44:42.837Z,1010.92
2018-05-03T07:45:42.822Z,1010.93
2018-05-03T07:46:42.799Z,1010.94
2018-05-03T07:47:42.781Z,1010.97
2018-05-03T07:48:42.767Z,1010.94
2018-05-03T07:49:42.750Z,1010.99
2018-05-03T07:50:42.728Z,1010.98
2018-05-03T07:51:42.720Z,1010.98
2018-05-03T07:52:42.693Z,1010.96
2018-05-03T07:53:42.693Z,1011.03
2018-05-03T07:54:42.660Z,1011.03
2018-05-03T07:55:42.644Z,1011.08
2018-05-03T07:56:42.635Z,1011.14
2018-05-03T07:57:42.609Z,1011.12
2018-05-03T07:58:42.585Z,1011.10
2018-05-03T07:59:42.571Z,1011.17
2018-05-03T08:00:42.552Z,1011.15
2018-05-03T08:01:42.535Z,1011.16
2018-05-03T08:02:42.514Z,1011.12
2018-05-03T08:03:42.501Z,1011.15
2018-05-03T08:04:42.481Z,1011.10
2018-05-03T08:05:42.467Z,1011.10
2018-05-03T08:06:42.470Z,1011.17
2018-05-03T08:07:42.426Z,1011.17
2018-05-03T08:08:42.410Z,1011.19
2018-05-03T08:09:42.392Z,1011.19
2018-05-03T08:10:42.379Z,1011.23
2018-05-03T08:11:42.358Z,1011.24
2018-05-03T08:12:42.397Z,1011.23
2018-05-03T08:13:42.325Z,1011.27
2018-05-03T08:14:42.317Z,1011.24
2018-05-03T08:15:42.285Z,1011.31
2018-05-03T08:16:42.269Z,1011.31
2018-05-03T08:17:42.254Z,1011.39
2018-05-03T08:18:42.240Z,1011.37
2018-05-03T08:19:42.226Z,1011.42
2018-05-03T08:20:42.198Z,1011.49
2018-05-03T08:21:42.186Z,1011.43
2018-05-03T08:22:42.163Z,1011.48
2018-05-03T08:23:42.150Z,1011.49
2018-05-03T08:24:42.127Z,1011.48
2018-05-03T08:25:42.114Z,1011.45
2018-05-03T08:26:42.095Z,1011.44
2018-05-03T08:27:42.088Z,1011.50
2018-05-03T08:28:42.064Z,1011.44
2018-05-03T08:29:42.044Z,1011.45
2018-05-03T08:30:42.023Z,1011.52
2018-05-03T08:31:42.073Z,1011.48
2018-05-03T08:32:41.990Z,1011.50
2018-05-03T08:33:41.980Z,1011.54
2018-05-03T08:34:41.954Z,1011.53
2018-05-03T08:35:41.948Z,1011.54
2018-05-03T08:36:41.921Z,1011.57
2018-05-03T08:37:41.905Z,1011.53
2018-05-03T08:38:41.893Z,1011.56
2018-05-03T08:39:41.866Z,1011.56
2018-05-03T08:40:41.857Z,1011.57
2018-05-03T08:41:41.835Z,1011.54
2018-05-03T08:42:41.813Z,1011.63
2018-05-03T08:43:41.800Z,1011.65
2018-05-03T08:44:41.779Z,1011.66
2018-05-03T08:45:41.764Z,1011.67
2018-05-03T08:46:41.746Z,1011.65
2018-05-03T08:47:41.731Z,1011.74
2018-05-03T08:48:41.715Z,1011.69
2018-05-03T08:49:41.703Z,1011.76
2018-05-03T08:50:41.677Z,1011.78
2018-05-03T08:51:41.660Z,1011.76
2018-05-03T08:52:41.652Z,1011.84
2018-05-03T08:53:41.635Z,1011.86
2018-05-03T08:54:41.606Z,1011.85
2018-05-03T08:55:41.656Z,1011.89
2018-05-03T08:56:41.575Z,1011.86
2018-05-03T08:57:41.557Z,1011.91
2018-05-03T08:58:41.540Z,1011.92
2018-05-03T08:59:41.523Z,1011.94
2018-05-03T09:00:41.503Z,1011.94
2018-05-03T09:01:41.501Z,1011.87
2018-05-03T09:02:41.470Z,1011.85
2018-05-03T09:03:41.455Z,1011.88
2018-05-03T09:04:41.439Z,1011.91
2018-05-03T09:05:41.421Z,1011.93
2018-05-03T09:06:41.401Z,1011.96
2018-05-03T09:07:41.412Z,1012.00
2018-05-03T09:08:41.368Z,1011.93
2018-05-03T09:09:41.355Z,1011.96
2018-05-03T09:10:41.338Z,1011.98
2018-05-03T09:11:41.321Z,1011.94
2018-05-03T09:12:41.304Z,1011.96
2018-05-03T09:13:41.290Z,1011.96
2018-05-03T09:14:41.337Z,1012.00
2018-05-03T09:15:41.250Z,1012.01
2018-05-03T09:16:41.249Z,1011.99
2018-05-03T09:17:41.219Z,1011.99
2018-05-03T09:18:41.200Z,1012.00
2018-05-03T09:19:41.192Z,1012.02
2018-05-03T09:20:41.178Z,1012.01
2018-05-03T09:21:41.153Z,1012.03
2018-05-03T09:22:41.144Z,1012.02
2018-05-03T09:23:41.117Z,1012.03
2018-05-03T09:24:41.100Z,1012.09
2018-05-03T09:25:41.084Z,1012.07
2018-05-03T09:26:41.065Z,1012.10
2018-05-03T09:27:41.047Z,1012.09
2018-05-03T09:28:41.034Z,1012.06
2018-05-03T09:29:41.024Z,1012.06
2018-05-03T09:30:40.999Z,1012.06
2018-05-03T09:31:40.980Z,1012.04
2018-05-03T09:32:40.965Z,1012.06
2018-05-03T09:33:40.950Z,1012.05
2018-05-03T09:34:40.933Z,1012.11
2018-05-03T09:35:40.916Z,1012.09
2018-05-03T09:36:40.900Z,1012.06
2018-05-03T09:37:40.881Z,1012.07
2018-05-03T09:38:40.863Z,1012.04
2018-05-03T09:39:40.849Z,1012.08
2018-05-03T09:40:40.833Z,1012.16
2018-05-03T09:41:40.816Z,1012.19
2018-05-03T09:42:40.804Z,1012.23
2018-05-03T09:43:40.781Z,1012.21
2018-05-03T09:44:40.851Z,1012.19
2018-05-03T09:45:40.749Z,1012.16
2018-05-03T09:46:40.729Z,1012.26
2018-05-03T09:47:40.716Z,1012.28
2018-05-03T09:48:40.702Z,1012.32
2018-05-03T09:49:40.680Z,1012.26
2018-05-03T09:50:40.661Z,1012.26
2018-05-03T09:51:40.649Z,1012.20
2018-05-03T09:52:40.630Z,1012.29
2018-05-03T09:53:40.610Z,1012.35
2018-05-03T09:54:40.595Z,1012.33
2018-05-03T09:55:40.579Z,1012.29
2018-05-03T09:56:40.562Z,1012.30
2018-05-03T09:57:40.550Z,1012.37
2018-05-03T09:58:40.529Z,1012.34
2018-05-03T09:59:40.517Z,1012.33
2018-05-03T10:00:40.501Z,1012.35
2018-05-03T10:01:40.484Z,1012.37
2018-05-03T10:02:40.469Z,1012.38
2018-05-03T10:03:40.450Z,1012.40
2018-05-03T10:04:40.434Z,1012.51
2018-05-03T10:05:40.416Z,1012.45
2018-05-03T10:06:40.411Z,1012.46
2018-05-03T10:07:40.383Z,1012.49
2018-05-03T10:08:40.367Z,1012.45
2018-05-03T10:09:40.346Z,1012.44
2018-05-03T10:10:40.332Z,1012.45
2018-05-03T10:11:40.314Z,1012.47
2018-05-03T10:12:40.301Z,1012.49
2018-05-03T10:13:40.279Z,1012.50
2018-05-03T10:14:40.354Z,1012.48
2018-05-03T10:15:40.258Z,1012.47
2018-05-03T10:16:40.232Z,1012.44
2018-05-03T10:17:40.217Z,1012.41
2018-05-03T10:18:40.198Z,1012.39
2018-05-03T10:19:40.184Z,1012.40
2018-05-03T10:20:40.170Z,1012.44
2018-05-03T10:21:40.150Z,1012.43
2018-05-03T10:22:40.251Z,1012.41
2018-05-03T10:23:40.118Z,1012.40
2018-05-03T10:24:40.097Z,1012.42
2018-05-03T10:25:40.089Z,1012.41
2018-05-03T10:26:40.066Z,1012.44
2018-05-03T10:27:40.060Z,1012.43
2018-05-03T10:28:40.033Z,1012.48
2018-05-03T10:29:40.018Z,1012.47
2018-05-03T10:30:40.003Z,1012.48
2018-05-03T10:31:40.003Z,1012.46
2018-05-03T10:32:39.972Z,1012.47
2018-05-03T10:33:39.953Z,1012.51
2018-05-03T10:34:39.939Z,1012.60
2018-05-03T10:35:39.998Z,1012.51
2018-05-03T10:36:39.901Z,1012.45
2018-05-03T10:37:39.899Z,1012.50
2018-05-03T10:38:39.879Z,1012.49
2018-05-03T10:39:39.854Z,1012.51
2018-05-03T10:40:39.839Z,1012.48
2018-05-03T10:41:39.821Z,1012.50
2018-05-03T10:42:39.806Z,1012.58
2018-05-03T10:43:39.795Z,1012.57
2018-05-03T10:44:39.774Z,1012.59
2018-05-03T10:45:39.756Z,1012.64
2018-05-03T10:46:39.739Z,1012.63
2018-05-03T10:47:39.727Z,1012.61
2018-05-03T10:48:39.827Z,1012.61
2018-05-03T10:49:39.698Z,1012.56
2018-05-03T10:50:39.678Z,1012.55
2018-05-03T10:51:39.669Z,1012.53
2018-05-03T10:52:39.644Z,1012.48
2018-05-03T10:53:39.629Z,1012.44
2018-05-03T10:54:39.618Z,1012.49
2018-05-03T10:55:39.596Z,1012.48
2018-05-03T10:56:39.579Z,1012.53
2018-05-03T10:57:39.570Z,1012.55
2018-05-03T10:58:39.546Z,1012.50
2018-05-03T10:59:39.533Z,1012.54
2018-05-03T11:00:39.518Z,1012.55
2018-05-03T11:01:39.499Z,1012.52
2018-05-03T11:02:39.479Z,1012.54
2018-05-03T11:03:39.470Z,1012.59
2018-05-03T11:04:39.449Z,1012.54
2018-05-03T11:05:39.435Z,1012.56
2018-05-03T11:06:39.418Z,1012.60
2018-05-03T11:07:39.405Z,1012.54
2018-05-03T11:08:39.398Z,1012.55
2018-05-03T11:09:39.370Z,1012.54
2018-05-03T11:10:39.359Z,1012.48
2018-05-03T11:11:39.337Z,1012.52
2018-05-03T11:12:39.323Z,1012.48
2018-05-03T11:13:39.307Z,1012.44
2018-05-03T11:14:39.304Z,1012.50
2018-05-03T11:15:39.276Z,1012.46
2018-05-03T11:16:39.281Z,1012.48
2018-05-03T11:17:39.243Z,1012.55
2018-05-03T11:18:39.222Z,1012.55
2018-05-03T11:19:39.206Z,1012.50
2018-05-03T11:20:39.190Z,1012.51
2018-05-03T11:21:39.175Z,1012.52
2018-05-03T11:22:39.158Z,1012.56
2018-05-03T11:23:39.146Z,1012.52
2018-05-03T11:24:39.127Z,1012.56
2018-05-03T11:25:39.113Z,1012.65
2018-05-03T11:26:39.098Z,1012.64
2018-05-03T11:27:39.088Z,1012.64
2018-05-03T11:28:39.077Z,1012.57
2018-05-03T11:29:39.049Z,1012.55
2018-05-03T11:30:39.036Z,1012.59
2018-05-03T11:31:39.022Z,1012.58
2018-05-03T11:32:39.004Z,1012.49
2018-05-03T11:33:38.985Z,1012.53
2018-05-03T11:34:38.968Z,1012.53
2018-05-03T11:35:38.954Z,1012.49
2018-05-03T11:36:38.995Z,1012.48
2018-05-03T11:37:38.922Z,1012.53
2018-05-03T11:38:38.916Z,1012.58
2018-05-03T11:39:38.897Z,1012.55
2018-05-03T11:40:38.881Z,1012.59
2018-05-03T11:41:38.876Z,1012.64
2018-05-03T11:42:38.880Z,1012.64
2018-05-03T11:43:38.832Z,1012.67
2018-05-03T11:44:38.821Z,1012.70
2018-05-03T11:45:38.795Z,1012.73
2018-05-03T11:46:38.784Z,1012.72
2018-05-03T11:47:38.772Z,1012.71
2018-05-03T11:48:38.749Z,1012.73
2018-05-03T11:49:38.734Z,1012.72
2018-05-03T11:50:38.721Z,1012.84
2018-05-03T11:51:38.704Z,1012.80
2018-05-03T11:52:38.690Z,1012.79
2018-05-03T11:53:38.670Z,1012.82
2018-05-03T11:54:38.653Z,1012.82
2018-05-03T11:55:38.637Z,1012.76
2018-05-03T11:56:38.624Z,1012.75
2018-05-03T11:57:38.607Z,1012.78
2018-05-03T11:58:38.588Z,1012.79
2018-05-03T11:59:38.575Z,1012.74
2018-05-03T12:00:38.553Z,1012.76
2018-05-03T12:01:38.538Z,1012.73
2018-05-03T12:02:38.527Z,1012.70
2018-05-03T12:03:38.506Z,1012.69
2018-05-03T12:04:38.494Z,1012.77
2018-05-03T12:05:38.494Z,1012.70